sensor_id;sensor_type;location;lat;lon;timestamp;P1;durP1;ratioP1;P2;durP2;ratioP2
25915;SDS011;13719;48.188;11.618;2023-10-19T00:00:05;7.07;;;6.18;;
25915;SDS011;13719;48.188;11.618;2023-10-19T00:02:49;5.82;;;5.32;;
25915;SDS011;13719;48.188;11.618;2023-10-19T00:05:21;5.78;;;5.25;;
25915;SDS011;13719;48.188;11.618;2023-10-19T00:07:52;8.15;;;5.60;;
25915;SDS011;13719;48.188;11.618;2023-10-19T00:10:23;5.85;;;5.35;;
25915;SDS011;13719;48.188;11.618;2023-10-19T00:12:55;6.25;;;5.75;;
25915;SDS011;13719;48.188;11.618;2023-10-19T00:15:26;6.30;;;5.80;;
25915;SDS011;13719;48.188;11.618;2023-10-19T00:17:59;6.90;;;6.22;;
25915;SDS011;13719;48.188;11.618;2023-10-19T00:20:35;5.43;;;4.97;;
25915;SDS011;13719;48.188;11.618;2023-10-19T00:23:15;6.35;;;5.75;;
25915;SDS011;13719;48.188;11.618;2023-10-19T00:25:45;6.10;;;5.50;;
25915;SDS011;13719;48.188;11.618;2023-10-19T00:28:17;5.88;;;5.43;;
25915;SDS011;13719;48.188;11.618;2023-10-19T00:30:46;5.78;;;5.30;;
25915;SDS011;13719;48.188;11.618;2023-10-19T00:33:17;5.88;;;5.28;;
25915;SDS011;13719;48.188;11.618;2023-10-19T00:35:46;6.32;;;5.72;;
25915;SDS011;13719;48.188;11.618;2023-10-19T00:38:18;5.95;;;5.45;;
25915;SDS011;13719;48.188;11.618;2023-10-19T00:41:05;5.82;;;5.30;;
25915;SDS011;13719;48.188;11.618;2023-10-19T00:43:38;5.32;;;4.82;;
25915;SDS011;13719;48.188;11.618;2023-10-19T00:46:10;6.55;;;5.65;;
25915;SDS011;13719;48.188;11.618;2023-10-19T00:48:53;6.05;;;5.45;;
25915;SDS011;13719;48.188;11.618;2023-10-19T00:51:22;6.00;;;5.50;;
25915;SDS011;13719;48.188;11.618;2023-10-19T00:54:07;5.30;;;4.90;;
25915;SDS011;13719;48.188;11.618;2023-10-19T00:56:37;5.82;;;5.30;;
25915;SDS011;13719;48.188;11.618;2023-10-19T00:59:10;6.53;;;5.60;;
25915;SDS011;13719;48.188;11.618;2023-10-19T01:01:41;5.88;;;5.43;;
25915;SDS011;13719;48.188;11.618;2023-10-19T01:04:13;6.88;;;5.28;;
25915;SDS011;13719;48.188;11.618;2023-10-19T01:06:46;5.70;;;5.20;;
25915;SDS011;13719;48.188;11.618;2023-10-19T01:09:27;5.18;;;4.78;;
25915;SDS011;13719;48.188;11.618;2023-10-19T01:12:00;6.07;;;5.57;;
25915;SDS011;13719;48.188;11.618;2023-10-19T01:14:37;5.60;;;5.13;;
25915;SDS011;13719;48.188;11.618;2023-10-19T01:17:06;5.88;;;5.38;;
25915;SDS011;13719;48.188;11.618;2023-10-19T01:19:39;4.85;;;4.45;;
25915;SDS011;13719;48.188;11.618;2023-10-19T01:22:08;6.03;;;5.43;;
25915;SDS011;13719;48.188;11.618;2023-10-19T01:27:12;5.50;;;5.00;;
25915;SDS011;13719;48.188;11.618;2023-10-19T01:29:40;5.70;;;5.20;;
25915;SDS011;13719;48.188;11.618;2023-10-19T01:32:09;5.32;;;4.88;;
25915;SDS011;13719;48.188;11.618;2023-10-19T01:34:38;4.95;;;4.55;;
25915;SDS011;13719;48.188;11.618;2023-10-19T01:37:07;5.85;;;5.35;;
25915;SDS011;13719;48.188;11.618;2023-10-19T01:39:34;5.72;;;5.22;;
25915;SDS011;13719;48.188;11.618;2023-10-19T01:42:05;5.80;;;5.30;;
25915;SDS011;13719;48.188;11.618;2023-10-19T01:44:36;6.47;;;5.82;;
25915;SDS011;13719;48.188;11.618;2023-10-19T01:47:04;6.65;;;6.05;;
25915;SDS011;13719;48.188;11.618;2023-10-19T01:49:32;4.80;;;4.43;;
25915;SDS011;13719;48.188;11.618;2023-10-19T01:52:01;5.63;;;5.10;;
25915;SDS011;13719;48.188;11.618;2023-10-19T01:54:29;5.68;;;5.15;;
25915;SDS011;13719;48.188;11.618;2023-10-19T01:56:57;5.30;;;4.82;;
25915;SDS011;13719;48.188;11.618;2023-10-19T01:59:26;5.80;;;5.20;;
25915;SDS011;13719;48.188;11.618;2023-10-19T02:01:56;5.53;;;5.03;;
25915;SDS011;13719;48.188;11.618;2023-10-19T02:04:25;6.20;;;5.60;;
25915;SDS011;13719;48.188;11.618;2023-10-19T02:06:53;5.13;;;4.72;;
25915;SDS011;13719;48.188;11.618;2023-10-19T02:09:22;6.18;;;5.20;;
25915;SDS011;13719;48.188;11.618;2023-10-19T02:11:52;5.90;;;5.40;;
25915;SDS011;13719;48.188;11.618;2023-10-19T02:14:23;5.38;;;4.95;;
25915;SDS011;13719;48.188;11.618;2023-10-19T02:16:52;5.93;;;5.43;;
25915;SDS011;13719;48.188;11.618;2023-10-19T02:19:24;5.78;;;5.22;;
25915;SDS011;13719;48.188;11.618;2023-10-19T02:21:53;5.85;;;5.35;;
25915;SDS011;13719;48.188;11.618;2023-10-19T02:24:23;5.03;;;4.63;;
25915;SDS011;13719;48.188;11.618;2023-10-19T02:26:52;5.32;;;4.88;;
25915;SDS011;13719;48.188;11.618;2023-10-19T02:29:21;5.20;;;4.80;;
25915;SDS011;13719;48.188;11.618;2023-10-19T02:31:48;5.95;;;5.38;;
25915;SDS011;13719;48.188;11.618;2023-10-19T02:34:17;6.30;;;5.50;;
25915;SDS011;13719;48.188;11.618;2023-10-19T02:36:46;5.40;;;4.97;;
25915;SDS011;13719;48.188;11.618;2023-10-19T02:39:15;5.97;;;5.38;;
25915;SDS011;13719;48.188;11.618;2023-10-19T02:41:45;6.18;;;5.68;;
25915;SDS011;13719;48.188;11.618;2023-10-19T02:44:15;5.63;;;5.13;;
25915;SDS011;13719;48.188;11.618;2023-10-19T02:46:46;7.05;;;5.20;;
25915;SDS011;13719;48.188;11.618;2023-10-19T02:49:17;5.90;;;5.40;;
25915;SDS011;13719;48.188;11.618;2023-10-19T02:51:47;6.32;;;5.70;;
25915;SDS011;13719;48.188;11.618;2023-10-19T02:54:16;6.40;;;5.78;;
25915;SDS011;13719;48.188;11.618;2023-10-19T02:56:46;5.63;;;5.13;;
25915;SDS011;13719;48.188;11.618;2023-10-19T02:59:16;5.30;;;4.80;;
25915;SDS011;13719;48.188;11.618;2023-10-19T03:01:49;5.65;;;5.15;;
25915;SDS011;13719;48.188;11.618;2023-10-19T03:04:18;4.88;;;4.43;;
25915;SDS011;13719;48.188;11.618;2023-10-19T03:06:48;5.43;;;4.93;;
25915;SDS011;13719;48.188;11.618;2023-10-19T03:09:18;5.63;;;5.13;;
25915;SDS011;13719;48.188;11.618;2023-10-19T03:11:49;5.55;;;5.05;;
25915;SDS011;13719;48.188;11.618;2023-10-19T03:14:19;6.05;;;5.55;;
25915;SDS011;13719;48.188;11.618;2023-10-19T03:16:51;4.72;;;4.43;;
25915;SDS011;13719;48.188;11.618;2023-10-19T03:19:21;5.22;;;4.82;;
25915;SDS011;13719;48.188;11.618;2023-10-19T03:21:53;5.50;;;4.63;;
25915;SDS011;13719;48.188;11.618;2023-10-19T03:24:22;5.40;;;4.90;;
25915;SDS011;13719;48.188;11.618;2023-10-19T03:27:01;6.30;;;5.28;;
25915;SDS011;13719;48.188;11.618;2023-10-19T03:29:35;5.68;;;5.18;;
25915;SDS011;13719;48.188;11.618;2023-10-19T03:32:06;5.97;;;4.97;;
25915;SDS011;13719;48.188;11.618;2023-10-19T03:34:35;5.38;;;4.80;;
25915;SDS011;13719;48.188;11.618;2023-10-19T03:37:07;5.78;;;5.28;;
25915;SDS011;13719;48.188;11.618;2023-10-19T03:39:40;5.28;;;4.88;;
25915;SDS011;13719;48.188;11.618;2023-10-19T03:42:12;7.43;;;4.90;;
25915;SDS011;13719;48.188;11.618;2023-10-19T03:44:41;5.53;;;5.03;;
25915;SDS011;13719;48.188;11.618;2023-10-19T03:47:17;5.55;;;5.05;;
25915;SDS011;13719;48.188;11.618;2023-10-19T03:49:47;5.25;;;4.78;;
25915;SDS011;13719;48.188;11.618;2023-10-19T03:52:18;4.97;;;4.57;;
25915;SDS011;13719;48.188;11.618;2023-10-19T03:54:50;5.75;;;5.25;;
25915;SDS011;13719;48.188;11.618;2023-10-19T03:57:19;5.95;;;5.45;;
25915;SDS011;13719;48.188;11.618;2023-10-19T03:59:49;5.93;;;5.43;;
25915;SDS011;13719;48.188;11.618;2023-10-19T04:02:20;5.13;;;4.63;;
25915;SDS011;13719;48.188;11.618;2023-10-19T04:04:50;5.55;;;5.05;;
25915;SDS011;13719;48.188;11.618;2023-10-19T04:07:23;4.95;;;4.55;;
25915;SDS011;13719;48.188;11.618;2023-10-19T04:09:53;4.93;;;4.45;;
25915;SDS011;13719;48.188;11.618;2023-10-19T04:12:26;5.15;;;4.57;;
25915;SDS011;13719;48.188;11.618;2023-10-19T04:14:58;5.57;;;5.18;;
25915;SDS011;13719;48.188;11.618;2023-10-19T04:17:36;5.07;;;4.68;;
25915;SDS011;13719;48.188;11.618;2023-10-19T04:20:06;5.90;;;5.30;;
25915;SDS011;13719;48.188;11.618;2023-10-19T04:22:54;5.32;;;4.82;;
25915;SDS011;13719;48.188;11.618;2023-10-19T04:25:22;6.20;;;5.25;;
25915;SDS011;13719;48.188;11.618;2023-10-19T04:27:53;5.90;;;5.38;;
25915;SDS011;13719;48.188;11.618;2023-10-19T04:30:23;5.47;;;5.00;;
25915;SDS011;13719;48.188;11.618;2023-10-19T04:32:53;5.95;;;5.07;;
25915;SDS011;13719;48.188;11.618;2023-10-19T04:35:25;5.90;;;5.32;;
25915;SDS011;13719;48.188;11.618;2023-10-19T04:37:58;5.80;;;5.30;;
25915;SDS011;13719;48.188;11.618;2023-10-19T04:40:27;5.68;;;5.03;;
25915;SDS011;13719;48.188;11.618;2023-10-19T04:42:56;5.60;;;5.10;;
25915;SDS011;13719;48.188;11.618;2023-10-19T04:45:24;6.28;;;5.65;;
25915;SDS011;13719;48.188;11.618;2023-10-19T04:47:52;5.50;;;5.00;;
25915;SDS011;13719;48.188;11.618;2023-10-19T04:50:21;4.93;;;4.53;;
25915;SDS011;13719;48.188;11.618;2023-10-19T04:52:50;5.47;;;4.97;;
25915;SDS011;13719;48.188;11.618;2023-10-19T04:55:20;5.30;;;4.90;;
25915;SDS011;13719;48.188;11.618;2023-10-19T04:57:48;7.07;;;5.32;;
25915;SDS011;13719;48.188;11.618;2023-10-19T05:00:17;5.22;;;4.72;;
25915;SDS011;13719;48.188;11.618;2023-10-19T05:02:47;5.40;;;5.00;;
25915;SDS011;13719;48.188;11.618;2023-10-19T05:05:18;6.43;;;5.28;;
25915;SDS011;13719;48.188;11.618;2023-10-19T05:07:47;5.63;;;5.13;;
25915;SDS011;13719;48.188;11.618;2023-10-19T05:10:15;5.30;;;4.88;;
25915;SDS011;13719;48.188;11.618;2023-10-19T05:12:47;5.80;;;5.20;;
25915;SDS011;13719;48.188;11.618;2023-10-19T05:15:16;5.13;;;4.72;;
25915;SDS011;13719;48.188;11.618;2023-10-19T05:17:45;4.53;;;4.20;;
25915;SDS011;13719;48.188;11.618;2023-10-19T05:20:14;6.45;;;4.68;;
25915;SDS011;13719;48.188;11.618;2023-10-19T05:22:42;5.10;;;4.70;;
25915;SDS011;13719;48.188;11.618;2023-10-19T05:25:10;5.63;;;5.13;;
25915;SDS011;13719;48.188;11.618;2023-10-19T05:27:39;4.88;;;4.47;;
25915;SDS011;13719;48.188;11.618;2023-10-19T05:30:10;5.32;;;4.93;;
25915;SDS011;13719;48.188;11.618;2023-10-19T05:32:39;5.88;;;5.30;;
25915;SDS011;13719;48.188;11.618;2023-10-19T05:35:07;7.35;;;5.60;;
25915;SDS011;13719;48.188;11.618;2023-10-19T05:37:39;5.05;;;4.65;;
25915;SDS011;13719;48.188;11.618;2023-10-19T05:40:09;5.30;;;4.90;;
25915;SDS011;13719;48.188;11.618;2023-10-19T05:42:41;5.55;;;5.13;;
25915;SDS011;13719;48.188;11.618;2023-10-19T05:45:11;4.93;;;4.53;;
25915;SDS011;13719;48.188;11.618;2023-10-19T05:47:42;5.28;;;4.78;;
25915;SDS011;13719;48.188;11.618;2023-10-19T05:50:11;5.18;;;4.70;;
25915;SDS011;13719;48.188;11.618;2023-10-19T05:52:41;5.05;;;4.65;;
25915;SDS011;13719;48.188;11.618;2023-10-19T05:55:10;5.15;;;4.70;;
25915;SDS011;13719;48.188;11.618;2023-10-19T05:57:38;4.65;;;4.22;;
25915;SDS011;13719;48.188;11.618;2023-10-19T06:00:08;5.25;;;4.78;;
25915;SDS011;13719;48.188;11.618;2023-10-19T06:02:42;4.85;;;4.45;;
25915;SDS011;13719;48.188;11.618;2023-10-19T06:05:12;5.32;;;4.93;;
25915;SDS011;13719;48.188;11.618;2023-10-19T06:07:42;5.00;;;4.60;;
25915;SDS011;13719;48.188;11.618;2023-10-19T06:10:11;4.50;;;4.10;;
25915;SDS011;13719;48.188;11.618;2023-10-19T06:12:42;5.72;;;5.18;;
25915;SDS011;13719;48.188;11.618;2023-10-19T06:15:10;5.53;;;5.03;;
25915;SDS011;13719;48.188;11.618;2023-10-19T06:17:39;5.00;;;4.60;;
25915;SDS011;13719;48.188;11.618;2023-10-19T06:20:10;5.43;;;4.95;;
25915;SDS011;13719;48.188;11.618;2023-10-19T06:25:17;4.28;;;3.97;;
25915;SDS011;13719;48.188;11.618;2023-10-19T06:27:46;5.20;;;4.70;;
25915;SDS011;13719;48.188;11.618;2023-10-19T06:30:14;4.95;;;4.55;;
25915;SDS011;13719;48.188;11.618;2023-10-19T06:32:46;4.93;;;4.53;;
25915;SDS011;13719;48.188;11.618;2023-10-19T06:35:16;4.78;;;4.38;;
25915;SDS011;13719;48.188;11.618;2023-10-19T06:37:45;4.32;;;4.03;;
25915;SDS011;13719;48.188;11.618;2023-10-19T06:40:15;5.13;;;4.68;;
25915;SDS011;13719;48.188;11.618;2023-10-19T06:42:44;5.00;;;4.60;;
25915;SDS011;13719;48.188;11.618;2023-10-19T06:45:12;5.18;;;4.78;;
25915;SDS011;13719;48.188;11.618;2023-10-19T06:47:41;5.10;;;4.70;;
25915;SDS011;13719;48.188;11.618;2023-10-19T06:50:11;5.38;;;4.88;;
25915;SDS011;13719;48.188;11.618;2023-10-19T06:52:44;5.18;;;4.45;;
25915;SDS011;13719;48.188;11.618;2023-10-19T06:55:13;4.72;;;4.32;;
25915;SDS011;13719;48.188;11.618;2023-10-19T06:57:43;4.70;;;4.30;;
25915;SDS011;13719;48.188;11.618;2023-10-19T07:00:12;4.80;;;4.40;;
25915;SDS011;13719;48.188;11.618;2023-10-19T07:02:46;5.28;;;4.78;;
25915;SDS011;13719;48.188;11.618;2023-10-19T07:05:14;4.90;;;4.40;;
25915;SDS011;13719;48.188;11.618;2023-10-19T07:07:49;5.35;;;4.93;;
25915;SDS011;13719;48.188;11.618;2023-10-19T07:10:20;4.35;;;4.05;;
25915;SDS011;13719;48.188;11.618;2023-10-19T07:12:50;5.00;;;4.60;;
25915;SDS011;13719;48.188;11.618;2023-10-19T07:15:20;4.63;;;4.28;;
25915;SDS011;13719;48.188;11.618;2023-10-19T07:17:50;4.30;;;3.95;;
25915;SDS011;13719;48.188;11.618;2023-10-19T07:20:20;4.45;;;4.07;;
25915;SDS011;13719;48.188;11.618;2023-10-19T07:22:53;5.05;;;4.57;;
25915;SDS011;13719;48.188;11.618;2023-10-19T07:25:22;4.78;;;4.38;;
25915;SDS011;13719;48.188;11.618;2023-10-19T07:27:52;4.65;;;4.25;;
25915;SDS011;13719;48.188;11.618;2023-10-19T07:30:21;5.60;;;5.20;;
25915;SDS011;13719;48.188;11.618;2023-10-19T07:32:53;4.75;;;4.35;;
25915;SDS011;13719;48.188;11.618;2023-10-19T07:35:25;5.45;;;4.95;;
25915;SDS011;13719;48.188;11.618;2023-10-19T07:37:55;5.88;;;5.38;;
25915;SDS011;13719;48.188;11.618;2023-10-19T07:40:24;5.45;;;4.95;;
25915;SDS011;13719;48.188;11.618;2023-10-19T07:42:53;5.43;;;4.93;;
25915;SDS011;13719;48.188;11.618;2023-10-19T07:45:21;5.22;;;4.72;;
25915;SDS011;13719;48.188;11.618;2023-10-19T07:47:52;6.00;;;5.05;;
25915;SDS011;13719;48.188;11.618;2023-10-19T07:50:21;6.45;;;5.28;;
25915;SDS011;13719;48.188;11.618;2023-10-19T07:52:50;5.57;;;5.03;;
25915;SDS011;13719;48.188;11.618;2023-10-19T07:55:21;5.30;;;4.82;;
25915;SDS011;13719;48.188;11.618;2023-10-19T07:57:50;5.20;;;4.80;;
25915;SDS011;13719;48.188;11.618;2023-10-19T08:00:19;5.03;;;4.63;;
25915;SDS011;13719;48.188;11.618;2023-10-19T08:02:49;8.00;;;4.80;;
25915;SDS011;13719;48.188;11.618;2023-10-19T08:05:20;5.72;;;5.25;;
25915;SDS011;13719;48.188;11.618;2023-10-19T08:07:48;6.65;;;5.90;;
25915;SDS011;13719;48.188;11.618;2023-10-19T08:10:17;5.10;;;4.70;;
25915;SDS011;13719;48.188;11.618;2023-10-19T08:12:48;5.07;;;4.57;;
25915;SDS011;13719;48.188;11.618;2023-10-19T08:15:18;4.35;;;4.00;;
25915;SDS011;13719;48.188;11.618;2023-10-19T08:17:48;4.97;;;4.55;;
25915;SDS011;13719;48.188;11.618;2023-10-19T08:20:17;5.00;;;4.60;;
25915;SDS011;13719;48.188;11.618;2023-10-19T08:22:51;6.90;;;4.33;;
25915;SDS011;13719;48.188;11.618;2023-10-19T08:25:20;4.15;;;3.75;;
25915;SDS011;13719;48.188;11.618;2023-10-19T08:27:50;5.72;;;4.25;;
25915;SDS011;13719;48.188;11.618;2023-10-19T08:30:22;4.85;;;4.45;;
25915;SDS011;13719;48.188;11.618;2023-10-19T08:32:53;4.75;;;4.35;;
25915;SDS011;13719;48.188;11.618;2023-10-19T08:35:24;4.40;;;4.00;;
25915;SDS011;13719;48.188;11.618;2023-10-19T08:37:53;4.60;;;4.20;;
25915;SDS011;13719;48.188;11.618;2023-10-19T08:40:23;4.03;;;3.63;;
25915;SDS011;13719;48.188;11.618;2023-10-19T08:42:55;5.55;;;3.80;;
25915;SDS011;13719;48.188;11.618;2023-10-19T08:45:23;4.95;;;3.70;;
25915;SDS011;13719;48.188;11.618;2023-10-19T08:47:53;3.97;;;3.67;;
25915;SDS011;13719;48.188;11.618;2023-10-19T08:50:23;4.38;;;3.97;;
25915;SDS011;13719;48.188;11.618;2023-10-19T08:52:52;3.90;;;3.60;;
25915;SDS011;13719;48.188;11.618;2023-10-19T08:55:21;4.07;;;3.78;;
25915;SDS011;13719;48.188;11.618;2023-10-19T08:58:11;3.97;;;3.67;;
25915;SDS011;13719;48.188;11.618;2023-10-19T09:00:43;4.28;;;3.88;;
25915;SDS011;13719;48.188;11.618;2023-10-19T09:03:14;3.95;;;3.55;;
25915;SDS011;13719;48.188;11.618;2023-10-19T09:05:44;4.43;;;4.03;;
25915;SDS011;13719;48.188;11.618;2023-10-19T09:08:14;4.35;;;3.95;;
25915;SDS011;13719;48.188;11.618;2023-10-19T09:10:45;3.95;;;3.55;;
25915;SDS011;13719;48.188;11.618;2023-10-19T09:13:16;3.83;;;3.53;;
25915;SDS011;13719;48.188;11.618;2023-10-19T09:15:46;3.85;;;3.55;;
25915;SDS011;13719;48.188;11.618;2023-10-19T09:18:16;4.50;;;4.10;;
25915;SDS011;13719;48.188;11.618;2023-10-19T09:20:46;4.05;;;3.72;;
25915;SDS011;13719;48.188;11.618;2023-10-19T09:23:20;4.55;;;4.25;;
25915;SDS011;13719;48.188;11.618;2023-10-19T09:25:49;4.00;;;3.67;;
25915;SDS011;13719;48.188;11.618;2023-10-19T09:28:21;4.38;;;4.07;;
25915;SDS011;13719;48.188;11.618;2023-10-19T09:30:51;4.60;;;4.20;;
25915;SDS011;13719;48.188;11.618;2023-10-19T09:33:20;4.93;;;4.53;;
25915;SDS011;13719;48.188;11.618;2023-10-19T09:35:50;5.00;;;4.50;;
25915;SDS011;13719;48.188;11.618;2023-10-19T09:38:22;4.82;;;4.45;;
25915;SDS011;13719;48.188;11.618;2023-10-19T09:40:52;5.57;;;5.07;;
25915;SDS011;13719;48.188;11.618;2023-10-19T09:43:24;4.93;;;4.53;;
25915;SDS011;13719;48.188;11.618;2023-10-19T09:45:56;4.82;;;4.43;;
25915;SDS011;13719;48.188;11.618;2023-10-19T09:48:26;5.10;;;4.60;;
25915;SDS011;13719;48.188;11.618;2023-10-19T09:50:56;5.53;;;4.85;;
25915;SDS011;13719;48.188;11.618;2023-10-19T09:53:25;5.63;;;4.55;;
25915;SDS011;13719;48.188;11.618;2023-10-19T09:55:54;4.80;;;4.32;;
25915;SDS011;13719;48.188;11.618;2023-10-19T09:58:27;5.13;;;4.45;;
25915;SDS011;13719;48.188;11.618;2023-10-19T10:00:56;4.82;;;4.43;;
25915;SDS011;13719;48.188;11.618;2023-10-19T10:06:12;4.95;;;4.55;;
25915;SDS011;13719;48.188;11.618;2023-10-19T10:08:41;5.10;;;4.70;;
25915;SDS011;13719;48.188;11.618;2023-10-19T10:11:14;5.65;;;4.50;;
25915;SDS011;13719;48.188;11.618;2023-10-19T10:13:45;4.78;;;4.38;;
25915;SDS011;13719;48.188;11.618;2023-10-19T10:16:18;5.43;;;4.35;;
25915;SDS011;13719;48.188;11.618;2023-10-19T10:18:47;4.35;;;4.05;;
25915;SDS011;13719;48.188;11.618;2023-10-19T10:21:17;4.47;;;4.07;;
25915;SDS011;13719;48.188;11.618;2023-10-19T10:23:47;4.50;;;4.15;;
25915;SDS011;13719;48.188;11.618;2023-10-19T10:26:17;5.50;;;4.45;;
25915;SDS011;13719;48.188;11.618;2023-10-19T10:28:47;4.32;;;4.03;;
25915;SDS011;13719;48.188;11.618;2023-10-19T10:31:20;4.15;;;3.80;;
25915;SDS011;13719;48.188;11.618;2023-10-19T10:33:49;5.75;;;3.90;;
25915;SDS011;13719;48.188;11.618;2023-10-19T10:36:18;6.55;;;3.83;;
25915;SDS011;13719;48.188;11.618;2023-10-19T10:38:46;3.72;;;3.42;;
25915;SDS011;13719;48.188;11.618;2023-10-19T10:41:21;3.97;;;3.67;;
25915;SDS011;13719;48.188;11.618;2023-10-19T10:43:53;3.75;;;3.45;;
25915;SDS011;13719;48.188;11.618;2023-10-19T10:46:22;4.30;;;3.97;;
25915;SDS011;13719;48.188;11.618;2023-10-19T10:48:51;3.83;;;3.53;;
25915;SDS011;13719;48.188;11.618;2023-10-19T10:51:20;4.05;;;3.75;;
25915;SDS011;13719;48.188;11.618;2023-10-19T10:53:49;3.90;;;3.50;;
25915;SDS011;13719;48.188;11.618;2023-10-19T10:56:19;4.10;;;3.80;;
25915;SDS011;13719;48.188;11.618;2023-10-19T10:58:49;4.45;;;3.88;;
25915;SDS011;13719;48.188;11.618;2023-10-19T11:01:28;3.75;;;3.45;;
25915;SDS011;13719;48.188;11.618;2023-10-19T11:04:07;4.07;;;3.70;;
25915;SDS011;13719;48.188;11.618;2023-10-19T11:06:47;4.20;;;3.80;;
25915;SDS011;13719;48.188;11.618;2023-10-19T11:09:16;4.15;;;3.72;;
25915;SDS011;13719;48.188;11.618;2023-10-19T11:11:46;4.00;;;3.70;;
25915;SDS011;13719;48.188;11.618;2023-10-19T11:14:15;4.28;;;3.95;;
25915;SDS011;13719;48.188;11.618;2023-10-19T11:16:45;3.88;;;3.55;;
25915;SDS011;13719;48.188;11.618;2023-10-19T11:19:14;3.78;;;3.42;;
25915;SDS011;13719;48.188;11.618;2023-10-19T11:21:52;4.90;;;4.22;;
25915;SDS011;13719;48.188;11.618;2023-10-19T11:24:25;4.40;;;4.00;;
25915;SDS011;13719;48.188;11.618;2023-10-19T11:26:56;5.90;;;5.03;;
25915;SDS011;13719;48.188;11.618;2023-10-19T11:29:25;6.22;;;5.60;;
25915;SDS011;13719;48.188;11.618;2023-10-19T11:31:58;7.22;;;4.65;;
25915;SDS011;13719;48.188;11.618;2023-10-19T11:34:27;5.30;;;4.80;;
25915;SDS011;13719;48.188;11.618;2023-10-19T11:36:57;8.35;;;5.25;;
25915;SDS011;13719;48.188;11.618;2023-10-19T11:39:27;8.45;;;5.05;;
25915;SDS011;13719;48.188;11.618;2023-10-19T11:41:56;5.10;;;4.60;;
25915;SDS011;13719;48.188;11.618;2023-10-19T11:44:24;5.53;;;5.03;;
25915;SDS011;13719;48.188;11.618;2023-10-19T11:46:53;6.22;;;4.65;;
25915;SDS011;13719;48.188;11.618;2023-10-19T11:49:22;5.40;;;4.90;;
25915;SDS011;13719;48.188;11.618;2023-10-19T11:51:52;5.22;;;4.57;;
25915;SDS011;13719;48.188;11.618;2023-10-19T11:54:20;4.25;;;3.85;;
25915;SDS011;13719;48.188;11.618;2023-10-19T11:56:49;4.68;;;4.00;;
25915;SDS011;13719;48.188;11.618;2023-10-19T11:59:17;4.25;;;3.85;;
25915;SDS011;13719;48.188;11.618;2023-10-19T12:01:46;3.88;;;3.58;;
25915;SDS011;13719;48.188;11.618;2023-10-19T12:04:14;5.07;;;4.03;;
25915;SDS011;13719;48.188;11.618;2023-10-19T12:06:44;3.80;;;3.50;;
25915;SDS011;13719;48.188;11.618;2023-10-19T12:09:13;3.95;;;3.60;;
25915;SDS011;13719;48.188;11.618;2023-10-19T12:11:42;4.88;;;4.40;;
25915;SDS011;13719;48.188;11.618;2023-10-19T12:14:14;4.38;;;4.00;;
25915;SDS011;13719;48.188;11.618;2023-10-19T12:16:42;7.10;;;5.03;;
25915;SDS011;13719;48.188;11.618;2023-10-19T12:19:12;4.50;;;3.40;;
25915;SDS011;13719;48.188;11.618;2023-10-19T12:21:41;3.67;;;3.38;;
25915;SDS011;13719;48.188;11.618;2023-10-19T12:24:12;4.20;;;3.90;;
25915;SDS011;13719;48.188;11.618;2023-10-19T12:26:41;3.75;;;3.45;;
25915;SDS011;13719;48.188;11.618;2023-10-19T12:29:11;4.13;;;3.83;;
25915;SDS011;13719;48.188;11.618;2023-10-19T12:31:43;3.67;;;3.13;;
25915;SDS011;13719;48.188;11.618;2023-10-19T12:34:13;4.10;;;3.67;;
25915;SDS011;13719;48.188;11.618;2023-10-19T12:36:43;3.40;;;3.10;;
25915;SDS011;13719;48.188;11.618;2023-10-19T12:39:14;5.93;;;3.42;;
25915;SDS011;13719;48.188;11.618;2023-10-19T12:42:02;3.40;;;3.10;;
25915;SDS011;13719;48.188;11.618;2023-10-19T12:44:31;4.00;;;3.33;;
25915;SDS011;13719;48.188;11.618;2023-10-19T12:49:36;4.07;;;3.10;;
25915;SDS011;13719;48.188;11.618;2023-10-19T12:52:04;3.50;;;3.22;;
25915;SDS011;13719;48.188;11.618;2023-10-19T12:54:35;3.50;;;3.20;;
25915;SDS011;13719;48.188;11.618;2023-10-19T12:57:03;3.80;;;3.50;;
25915;SDS011;13719;48.188;11.618;2023-10-19T12:59:34;3.78;;;3.47;;
25915;SDS011;13719;48.188;11.618;2023-10-19T13:02:04;3.30;;;3.10;;
25915;SDS011;13719;48.188;11.618;2023-10-19T13:04:35;3.28;;;2.97;;
25915;SDS011;13719;48.188;11.618;2023-10-19T13:07:04;3.13;;;2.83;;
25915;SDS011;13719;48.188;11.618;2023-10-19T13:09:35;3.17;;;2.88;;
25915;SDS011;13719;48.188;11.618;2023-10-19T13:12:03;2.90;;;2.70;;
25915;SDS011;13719;48.188;11.618;2023-10-19T13:14:34;2.90;;;2.70;;
25915;SDS011;13719;48.188;11.618;2023-10-19T13:17:03;4.65;;;2.70;;
25915;SDS011;13719;48.188;11.618;2023-10-19T13:19:32;3.15;;;2.85;;
25915;SDS011;13719;48.188;11.618;2023-10-19T13:22:03;3.03;;;2.83;;
25915;SDS011;13719;48.188;11.618;2023-10-19T13:24:35;4.25;;;2.80;;
25915;SDS011;13719;48.188;11.618;2023-10-19T13:27:08;2.80;;;2.60;;
25915;SDS011;13719;48.188;11.618;2023-10-19T13:29:36;3.20;;;2.83;;
25915;SDS011;13719;48.188;11.618;2023-10-19T13:32:08;3.40;;;2.80;;
25915;SDS011;13719;48.188;11.618;2023-10-19T13:34:37;4.75;;;3.33;;
25915;SDS011;13719;48.188;11.618;2023-10-19T13:37:07;2.90;;;2.70;;
25915;SDS011;13719;48.188;11.618;2023-10-19T13:39:36;2.83;;;2.63;;
25915;SDS011;13719;48.188;11.618;2023-10-19T13:42:05;3.13;;;2.70;;
25915;SDS011;13719;48.188;11.618;2023-10-19T13:44:35;4.38;;;3.03;;
25915;SDS011;13719;48.188;11.618;2023-10-19T13:47:05;3.00;;;2.80;;
25915;SDS011;13719;48.188;11.618;2023-10-19T13:49:35;2.70;;;2.50;;
25915;SDS011;13719;48.188;11.618;2023-10-19T13:52:04;3.70;;;2.80;;
25915;SDS011;13719;48.188;11.618;2023-10-19T13:54:36;3.15;;;2.72;;
25915;SDS011;13719;48.188;11.618;2023-10-19T13:57:04;2.50;;;2.30;;
25915;SDS011;13719;48.188;11.618;2023-10-19T13:59:33;2.42;;;2.22;;
25915;SDS011;13719;48.188;11.618;2023-10-19T14:02:01;2.50;;;2.30;;
25915;SDS011;13719;48.188;11.618;2023-10-19T14:04:30;2.67;;;2.47;;
25915;SDS011;13719;48.188;11.618;2023-10-19T14:06:59;2.30;;;2.20;;
25915;SDS011;13719;48.188;11.618;2023-10-19T14:09:27;2.85;;;2.15;;
25915;SDS011;13719;48.188;11.618;2023-10-19T14:11:59;2.58;;;2.35;;
25915;SDS011;13719;48.188;11.618;2023-10-19T14:14:30;2.38;;;2.20;;
25915;SDS011;13719;48.188;11.618;2023-10-19T14:16:58;2.80;;;2.60;;
25915;SDS011;13719;48.188;11.618;2023-10-19T14:19:27;2.40;;;2.30;;
25915;SDS011;13719;48.188;11.618;2023-10-19T14:21:59;2.25;;;2.15;;
25915;SDS011;13719;48.188;11.618;2023-10-19T14:24:29;2.30;;;2.20;;
25915;SDS011;13719;48.188;11.618;2023-10-19T14:26:57;2.70;;;2.50;;
25915;SDS011;13719;48.188;11.618;2023-10-19T14:29:28;2.40;;;2.22;;
25915;SDS011;13719;48.188;11.618;2023-10-19T14:31:56;2.50;;;2.30;;
25915;SDS011;13719;48.188;11.618;2023-10-19T14:34:25;2.65;;;2.45;;
25915;SDS011;13719;48.188;11.618;2023-10-19T14:36:53;2.92;;;2.63;;
25915;SDS011;13719;48.188;11.618;2023-10-19T14:39:22;2.95;;;2.75;;
25915;SDS011;13719;48.188;11.618;2023-10-19T14:41:51;3.30;;;3.00;;
25915;SDS011;13719;48.188;11.618;2023-10-19T14:44:19;5.15;;;4.38;;
25915;SDS011;13719;48.188;11.618;2023-10-19T14:46:49;5.00;;;4.38;;
25915;SDS011;13719;48.188;11.618;2023-10-19T14:49:18;5.28;;;4.30;;
25915;SDS011;13719;48.188;11.618;2023-10-19T14:51:47;4.88;;;4.47;;
25915;SDS011;13719;48.188;11.618;2023-10-19T14:54:16;4.20;;;3.90;;
25915;SDS011;13719;48.188;11.618;2023-10-19T14:56:44;4.60;;;4.20;;
25915;SDS011;13719;48.188;11.618;2023-10-19T14:59:13;4.35;;;4.05;;
25915;SDS011;13719;48.188;11.618;2023-10-19T15:01:41;4.30;;;3.90;;